Time;durP1;ratioP1;P1;durP2;ratioP2;P2;SDS_P1;SDS_P2;PMS_P1;PMS_P2;Temp;Humidity;BMP_temperature;BMP_pressure;BME280_temperature;BME280_humidity;BME280_pressure;Samples;Min_cycle;Max_cycle;Signal;HPM_P1;HPM_P2
2021/08/19 00:01:25;;;;;;;41.78;29.25;;;;;;;20.05;100.00;98860.94;5065403;28;20521;-63
2021/08/19 00:03:51;;;;;;;37.13;27.13;;;;;;;20.11;100.00;98865.72;5090683;28;20503;-62
2021/08/19 00:06:17;;;;;;;28.90;20.83;;;;;;;20.08;100.00;98871.25;5092354;28;20558;-63
2021/08/19 00:08:43;;;;;;;26.52;19.50;;;;;;;20.01;100.00;98872.75;5088947;28;20047;-62
2021/08/19 00:11:10;;;;;;;38.33;23.40;;;;;;;20.00;100.00;98878.16;5091382;28;20039;-62
2021/08/19 00:13:36;;;;;;;29.65;21.70;;;;;;;20.04;100.00;98888.34;5091410;28;20533;-62
2021/08/19 00:16:03;;;;;;;32.17;20.73;;;;;;;20.06;100.00;98894.28;5092040;28;20112;-63
2021/08/19 00:18:29;;;;;;;29.63;20.77;;;;;;;20.04;100.00;98896.25;5092547;28;20527;-63
2021/08/19 00:20:55;;;;;;;26.40;19.42;;;;;;;20.04;100.00;98893.63;5091576;28;20036;-63
2021/08/19 00:23:21;;;;;;;26.60;20.05;;;;;;;19.97;100.00;98867.88;5068213;28;20427;-62
2021/08/19 00:25:51;;;;;;;25.10;19.50;;;;;;;20.10;100.00;98890.41;5072643;28;20048;-63
2021/08/19 00:28:17;;;;;;;27.48;20.10;;;;;;;20.10;100.00;98895.69;5091592;28;20051;-63
2021/08/19 00:30:43;;;;;;;22.77;17.42;;;;;;;20.04;100.00;98888.34;5090961;28;20043;-63
2021/08/19 00:33:10;;;;;;;25.55;18.10;;;;;;;19.84;100.00;98868.91;5068721;28;20577;-62
2021/08/19 00:35:36;;;;;;;26.20;19.80;;;;;;;19.99;100.00;98890.53;5072329;28;20089;-62
2021/08/19 00:38:02;;;;;;;26.48;19.05;;;;;;;20.01;100.00;98890.38;5091906;28;20044;-62
2021/08/19 00:40:29;;;;;;;24.35;19.65;;;;;;;19.93;100.00;98880.50;5072634;28;20035;-62
2021/08/19 00:42:56;;;;;;;24.85;19.15;;;;;;;19.97;100.00;98881.91;5073845;28;20036;-62
2021/08/19 00:45:22;;;;;;;24.13;19.23;;;;;;;19.85;100.00;98867.09;5092098;28;20032;-64
2021/08/19 00:47:48;;;;;;;24.63;18.98;;;;;;;19.98;100.00;98899.41;5091413;28;20518;-62
2021/08/19 00:50:14;;;;;;;26.70;18.77;;;;;;;19.94;100.00;98889.25;5091656;28;20418;-63
2021/08/19 00:52:41;;;;;;;27.77;20.65;;;;;;;19.94;100.00;98894.53;5091352;28;20076;-62
2021/08/19 00:55:09;;;;;;;25.58;20.17;;;;;;;19.96;100.00;98890.78;5091700;28;20097;-62
2021/08/19 00:57:39;;;;;;;27.63;20.30;;;;;;;19.91;100.00;98876.31;5090470;28;20058;-64
2021/08/19 01:00:07;;;;;;;27.48;20.65;;;;;;;19.93;100.00;98877.84;5087787;28;20611;-64
2021/08/19 01:02:34;;;;;;;28.42;20.25;;;;;;;19.99;100.00;98882.63;5090492;28;20042;-63
2021/08/19 01:05:00;;;;;;;27.10;20.92;;;;;;;19.99;100.00;98882.63;5073719;28;20036;-63
2021/08/19 01:07:28;;;;;;;24.75;20.20;;;;;;;20.02;100.00;98877.06;5073312;28;20036;-62
2021/08/19 01:09:53;;;;;;;24.15;18.60;;;;;;;20.01;100.00;98880.66;5090422;28;20480;-61
2021/08/19 01:12:19;;;;;;;24.20;18.85;;;;;;;19.96;100.00;98882.03;5090383;28;20040;-62
2021/08/19 01:14:45;;;;;;;22.20;18.33;;;;;;;20.01;100.00;98883.31;5069628;28;20135;-62
2021/08/19 01:17:17;;;;;;;24.45;19.02;;;;;;;20.03;100.00;98886.66;5083046;28;20391;-61
2021/08/19 01:19:46;;;;;;;21.95;18.35;;;;;;;20.04;100.00;98883.06;5090533;28;20036;-61
2021/08/19 01:22:11;;;;;;;;;;;;;;;20.08;100.00;98894.16;5091400;28;20028;-62
2021/08/19 01:24:37;;;;;;;23.20;18.52;;;;;;;20.15;100.00;98882.13;5091369;28;19916;-62
2021/08/19 01:27:04;;;;;;;26.27;19.42;;;;;;;20.16;100.00;98889.91;5090983;28;20576;-63
2021/08/19 01:29:29;;;;;;;26.67;19.48;;;;;;;20.14;100.00;98870.75;5072061;28;20094;-62
2021/08/19 01:32:00;;;;;;;23.88;18.02;;;;;;;20.13;100.00;98876.13;5090441;28;20518;-63
2021/08/19 01:34:27;;;;;;;23.75;17.77;;;;;;;20.18;100.00;98882.69;5072873;28;20035;-62
2021/08/19 01:36:53;;;;;;;20.92;18.05;;;;;;;20.08;100.00;98887.09;5090630;28;20071;-63
2021/08/19 01:39:19;;;;;;;23.77;18.17;;;;;;;20.10;100.00;98885.13;5090639;28;20443;-62
2021/08/19 01:41:45;;;;;;;24.40;17.58;;;;;;;20.10;100.00;98881.66;5090981;28;20054;-63
2021/08/19 01:44:10;;;;;;;19.98;15.88;;;;;;;20.06;100.00;98882.91;5072227;28;20048;-63
2021/08/19 01:46:36;;;;;;;21.10;15.18;;;;;;;20.00;100.00;98880.78;5090056;28;20114;-62
2021/08/19 01:49:02;;;;;;;21.20;16.55;;;;;;;19.96;100.00;98880.22;5089669;28;20036;-62
2021/08/19 01:51:28;;;;;;;20.23;15.40;;;;;;;20.00;100.00;98880.78;5072592;28;20036;-62
2021/08/19 01:53:54;;;;;;;19.42;14.70;;;;;;;19.96;100.00;98880.22;5090327;28;20123;-62
2021/08/19 01:56:23;;;;;;;18.48;13.57;;;;;;;19.93;100.00;98890.22;5090318;28;20147;-63
2021/08/19 01:58:50;;;;;;;16.83;13.60;;;;;;;19.90;100.00;98883.38;5085121;28;20042;-64
2021/08/19 02:01:20;;;;;;;17.90;13.60;;;;;;;19.95;100.00;98885.63;5072044;28;20071;-62
2021/08/19 02:03:47;;;;;;;17.00;13.85;;;;;;;19.99;100.00;98876.50;5072012;28;20085;-63
2021/08/19 02:06:12;;;;;;;18.05;14.68;;;;;;;19.96;100.00;98874.94;5090195;28;20459;-62
2021/08/19 02:08:38;;;;;;;19.13;14.68;;;;;;;19.83;100.00;98867.25;5089803;28;20044;-62
2021/08/19 02:11:05;;;;;;;18.48;14.55;;;;;;;19.88;100.00;98888.81;5090394;28;20135;-63
2021/08/19 02:13:31;;;;;;;18.15;13.80;;;;;;;19.90;100.00;98888.66;5089957;28;20036;-62
2021/08/19 02:15:58;;;;;;;16.23;13.15;;;;;;;19.92;100.00;98891.16;5089975;28;20533;-61
2021/08/19 02:18:24;;;;;;;19.42;13.95;;;;;;;19.91;100.00;98894.78;5090053;28;20036;-63
2021/08/19 02:20:49;;;;;;;15.57;12.23;;;;;;;19.87;100.00;98889.75;5089618;28;20096;-62
2021/08/19 02:23:15;;;;;;;17.67;12.73;;;;;;;19.86;100.00;98900.44;5089792;28;20178;-62
2021/08/19 02:25:41;;;;;;;19.70;13.95;;;;;;;19.92;100.00;98910.47;5071717;28;20063;-63
2021/08/19 02:28:07;;;;;;;17.40;13.35;;;;;;;19.90;100.00;98909.75;5089133;28;20044;-63
2021/08/19 02:30:33;;;;;;;17.63;13.25;;;;;;;19.94;100.00;98913.00;5085487;28;20472;-63
2021/08/19 02:33:01;;;;;;;17.52;12.05;;;;;;;19.92;100.00;98913.13;5086905;28;20104;-63
2021/08/19 02:35:27;;;;;;;15.77;12.75;;;;;;;19.94;100.00;98905.88;5089460;28;20500;-62
2021/08/19 02:37:55;;;;;;;16.08;12.48;;;;;;;19.95;100.00;98904.94;5089415;28;20043;-64
2021/08/19 02:40:22;;;;;;;14.95;11.98;;;;;;;19.98;100.00;98909.97;5071189;28;20044;-63
2021/08/19 02:42:48;;;;;;;15.35;12.43;;;;;;;19.99;100.00;98906.38;5089798;28;20036;-63
2021/08/19 02:45:14;;;;;;;16.65;12.65;;;;;;;19.98;100.00;98909.97;5089616;28;20046;-64
2021/08/19 02:47:41;;;;;;;15.48;11.95;;;;;;;19.89;100.00;98892.25;5089390;28;20036;-63
2021/08/19 02:50:07;;;;;;;14.63;11.60;;;;;;;19.84;100.00;98883.91;5083174;28;20136;-63
2021/08/19 02:52:33;;;;;;;17.17;11.25;;;;;;;19.92;100.00;98892.00;5079775;28;20036;-63
2021/08/19 02:54:59;;;;;;;16.08;11.88;;;;;;;19.94;100.00;98899.81;5071704;28;20068;-63
2021/08/19 02:57:25;;;;;;;16.52;11.93;;;;;;;19.97;100.00;98905.66;5088528;28;20133;-63
2021/08/19 02:59:51;;;;;;;15.15;11.90;;;;;;;19.92;100.00;98893.81;5080695;28;20042;-62
2021/08/19 03:02:16;;;;;;;14.15;11.90;;;;;;;20.01;100.00;98901.78;5089357;28;20042;-61
2021/08/19 03:04:42;;;;;;;15.77;11.90;;;;;;;20.07;100.00;98918.88;5071524;28;20047;-61
2021/08/19 03:07:09;;;;;;;17.08;11.70;;;;;;;20.16;100.00;98918.94;5089003;28;20097;-62
2021/08/19 03:09:36;;;;;;;19.17;11.53;;;;;;;20.22;100.00;98922.84;5089637;28;20125;-62
2021/08/19 03:12:03;;;;;;;13.68;11.40;;;;;;;20.29;100.00;98921.34;5089241;28;20328;-61
2021/08/19 03:14:29;;;;;;;12.65;10.63;;;;;;;20.37;100.00;98916.28;5071183;28;20475;-62
2021/08/19 03:16:55;;;;;;;12.55;10.85;;;;;;;20.44;100.00;98933.25;5088830;28;20047;-64
2021/08/19 03:19:21;;;;;;;13.25;10.48;;;;;;;20.45;100.00;98931.47;5089718;28;20066;-64
2021/08/19 03:21:47;;;;;;;17.02;10.73;;;;;;;20.33;100.00;98914.88;5087759;28;20067;-62
2021/08/19 03:24:13;;;;;;;16.17;12.85;;;;;;;20.43;100.00;98926.31;5088767;28;20040;-64
2021/08/19 03:26:40;;;;;;;19.55;12.57;;;;;;;20.39;100.00;98924.91;5088873;28;20040;-64
2021/08/19 03:29:06;;;;;;;21.45;13.57;;;;;;;20.27;100.00;98904.81;5088989;28;20169;-63
2021/08/19 03:31:32;;;;;;;20.02;13.05;;;;;;;20.42;100.00;98916.72;5089206;28;20138;-63
2021/08/19 03:33:58;;;;;;;17.88;13.10;;;;;;;20.43;100.00;98912.25;5071292;28;20055;-63
2021/08/19 03:36:25;;;;;;;17.10;11.93;;;;;;;20.52;100.00;98929.94;5091253;28;20044;-62
2021/08/19 03:38:52;;;;;;;12.45;10.88;;;;;;;20.50;100.00;98929.25;5092953;28;20085;-63
2021/08/19 03:41:18;;;;;;;20.85;11.27;;;;;;;20.50;100.00;98924.81;5093090;28;20036;-59
2021/08/19 03:43:47;;;;;;;14.35;10.27;;;;;;;20.59;100.00;98928.44;5075038;28;20039;-61
2021/08/19 03:46:13;;;;;;;16.17;10.65;;;;;;;20.66;100.00;98914.59;5092537;28;20032;-62
2021/08/19 03:48:39;;;;;;;16.05;11.05;;;;;;;20.74;100.00;98927.09;5092284;28;20036;-62
2021/08/19 03:51:05;;;;;;;19.92;13.35;;;;;;;20.81;100.00;98925.59;5075138;28;20429;-62
2021/08/19 03:53:32;;;;;;;16.65;11.15;;;;;;;20.71;100.00;98920.28;5092410;28;20044;-62
2021/08/19 03:55:57;;;;;;;13.60;10.75;;;;;;;20.71;100.00;98925.59;5091670;28;20087;-61
2021/08/19 03:58:24;;;;;;;14.38;10.80;;;;;;;20.86;100.00;98925.19;5088518;28;20514;-62
2021/08/19 04:00:50;;;;;;;13.75;10.18;;;;;;;20.67;100.00;98915.41;5092224;28;20040;-62
2021/08/19 04:03:17;;;;;;;12.27;9.27;;;;;;;20.73;100.00;98929.91;5074280;28;20046;-61
2021/08/19 04:05:43;;;;;;;11.93;10.23;;;;;;;20.69;100.00;98924.03;5092447;28;20522;-61
2021/08/19 04:08:08;;;;;;;13.52;9.85;;;;;;;20.77;100.00;98921.56;5091906;28;20075;-60
2021/08/19 04:10:35;;;;;;;12.18;10.10;;;;;;;20.89;100.00;98922.25;5092393;28;20510;-62
2021/08/19 04:13:01;;;;;;;13.85;10.93;;;;;;;20.90;100.00;98921.28;5092146;28;20122;-62
2021/08/19 04:15:27;;;;;;;13.00;9.75;;;;;;;20.99;100.00;98928.41;5092532;28;20040;-62
2021/08/19 04:17:52;;;;;;;14.80;10.73;;;;;;;21.01;100.00;98927.31;5091670;28;20044;-62
2021/08/19 04:20:19;;;;;;;16.38;11.02;;;;;;;21.09;100.00;98926.63;5091966;28;20208;-62
2021/08/19 04:22:46;;;;;;;10.57;9.38;;;;;;;21.22;100.00;98927.22;5092418;28;20036;-62
2021/08/19 04:25:12;;;;;;;14.73;10.50;;;;;;;21.37;100.00;98927.63;5091404;28;20039;-62
2021/08/19 04:27:38;;;;;;;11.73;9.95;;;;;;;21.41;100.00;98932.50;5072627;28;20093;-62
2021/08/19 04:30:06;;;;;;;12.85;10.15;;;;;;;21.35;100.00;98919.88;5091944;28;20131;-62
2021/08/19 04:32:31;;;;;;;12.60;11.02;;;;;;;21.31;100.00;98923.72;5073675;28;20039;-62
2021/08/19 04:34:57;;;;;;;13.18;9.50;;;;;;;21.37;100.00;98911.78;5090816;28;20098;-63
2021/08/19 04:37:23;;;;;;;12.50;10.00;;;;;;;21.40;100.00;98916.78;5056563;28;20039;-56
2021/08/19 04:39:49;;;;;;;14.93;10.05;;;;;;;21.42;100.00;98914.81;5074879;28;20047;-62
2021/08/19 04:42:15;;;;;;;12.25;9.68;;;;;;;21.55;100.00;98923.31;5091978;28;20032;-61
2021/08/19 04:44:41;;;;;;;16.17;10.70;;;;;;;21.53;100.00;98919.97;5069884;28;20486;-61
2021/08/19 04:47:06;;;;;;;16.25;10.25;;;;;;;21.48;100.00;98917.75;5088490;28;20039;-61
2021/08/19 04:49:33;;;;;;;14.07;10.18;;;;;;;21.49;100.00;98913.31;5091710;28;20126;-63
2021/08/19 04:51:58;;;;;;;12.90;9.20;;;;;;;21.56;100.00;98917.06;5091500;28;20046;-62
2021/08/19 04:54:24;;;;;;;13.70;9.38;;;;;;;21.51;100.00;98919.31;5091519;28;20040;-61
2021/08/19 04:56:50;;;;;;;11.95;9.50;;;;;;;21.53;100.00;98914.69;5090493;28;20621;-62
2021/08/19 04:59:16;;;;;;;13.73;10.65;;;;;;;21.48;100.00;98916.91;5076945;28;20400;-61
2021/08/19 05:01:42;;;;;;;13.80;10.27;;;;;;;21.59;100.00;98919.41;5072862;28;20040;-62
2021/08/19 05:04:08;;;;;;;11.43;9.50;;;;;;;21.73;100.00;98921.63;5072907;28;20894;-62
2021/08/19 05:06:35;;;;;;;13.60;10.70;;;;;;;21.63;100.00;98919.97;5091082;28;20048;-62
2021/08/19 05:09:04;;;;;;;15.07;10.00;;;;;;;21.72;100.00;98922.59;5072396;28;20109;-60
2021/08/19 05:11:29;;;;;;;;;;;;;;;21.91;100.00;98916.44;5091334;28;20032;-63
2021/08/19 05:13:58;;;;;;;12.18;9.43;;;;;;;22.06;100.00;98909.75;5090734;28;19916;-62
2021/08/19 05:16:27;;;;;;;14.25;10.75;;;;;;;22.07;100.00;98921.19;5090448;28;20061;-62
2021/08/19 05:18:54;;;;;;;12.68;10.25;;;;;;;22.09;100.00;98909.44;5091066;28;20180;-62
2021/08/19 05:21:20;;;;;;;13.88;9.95;;;;;;;21.98;100.00;98910.44;5072792;28;20110;-61
2021/08/19 05:23:46;;;;;;;19.48;12.60;;;;;;;21.93;100.00;98910.00;5072033;28;20551;-61
2021/08/19 05:26:12;;;;;;;13.07;11.43;;;;;;;22.12;100.00;98906.53;5071569;28;20040;-62
2021/08/19 05:28:38;;;;;;;16.08;11.50;;;;;;;22.10;100.00;98910.28;5072769;28;20129;-62
2021/08/19 05:31:04;;;;;;;14.02;11.00;;;;;;;22.03;100.00;98915.34;5094369;28;20043;-62
2021/08/19 05:33:29;;;;;;;16.10;11.98;;;;;;;22.10;97.72;98900.53;5073249;28;20445;-61
2021/08/19 05:35:55;;;;;;;15.45;10.77;;;;;;;22.25;94.72;98903.53;5072200;28;20127;-63
2021/08/19 05:38:21;;;;;;;17.67;10.27;;;;;;;22.29;92.45;98907.59;5090920;28;20038;-63
2021/08/19 05:40:47;;;;;;;17.17;10.75;;;;;;;22.32;92.07;98913.41;5089883;28;20051;-62
2021/08/19 05:43:13;;;;;;;14.52;9.70;;;;;;;22.50;91.23;98913.50;5090612;28;20039;-61
2021/08/19 05:45:40;;;;;;;9.65;8.65;;;;;;;22.68;88.77;98909.06;5071964;28;20044;-62
2021/08/19 05:48:06;;;;;;;8.20;7.40;;;;;;;22.67;87.41;98912.69;5090733;28;20036;-63
2021/08/19 05:50:35;;;;;;;9.65;6.60;;;;;;;22.71;85.95;98900.03;5090632;28;20062;-61
2021/08/19 05:53:01;;;;;;;;;;;;;;;23.01;85.66;98910.28;5090886;28;20040;-62
2021/08/19 05:55:26;;;;;;;11.63;7.43;;;;;;;23.25;84.63;98920.28;5090731;28;19938;-61
2021/08/19 05:57:54;;;;;;;12.05;8.50;;;;;;;23.08;83.76;98911.34;5086863;28;20052;-64
2021/08/19 06:00:22;;;;;;;10.50;8.13;;;;;;;22.80;84.62;98918.53;5064813;28;20118;-65
2021/08/19 06:02:48;;;;;;;15.52;8.27;;;;;;;22.69;85.42;98920.50;5090234;28;20047;-67
2021/08/19 06:05:14;;;;;;;9.13;8.15;;;;;;;22.70;85.54;98917.72;5090028;28;20032;-64
2021/08/19 06:07:40;;;;;;;10.57;7.57;;;;;;;22.59;85.94;98909.97;5089316;28;20458;-63
2021/08/19 06:10:07;;;;;;;9.13;7.32;;;;;;;22.71;84.72;98923.88;5070910;28;20044;-65
2021/08/19 06:12:32;;;;;;;9.43;7.15;;;;;;;22.87;84.21;98918.75;5089896;28;20040;-65
2021/08/19 06:14:58;;;;;;;9.68;7.72;;;;;;;22.90;83.54;98907.84;5090205;28;20050;-69
2021/08/19 06:17:24;;;;;;;9.20;7.35;;;;;;;22.98;83.31;98931.78;5089580;28;20036;-65
2021/08/19 06:19:50;;;;;;;8.60;7.32;;;;;;;22.85;82.76;98928.66;5088519;28;21401;-66
2021/08/19 06:22:16;;;;;;;8.27;6.18;;;;;;;23.23;81.63;98915.16;5088036;28;20157;-65
2021/08/19 06:24:41;;;;;;;7.22;5.72;;;;;;;24.12;76.40;98927.50;5088812;28;20048;-67
2021/08/19 06:27:07;;;;;;;8.70;6.10;;;;;;;24.26;74.23;98924.28;5085810;28;20043;-68
2021/08/19 06:29:33;;;;;;;8.85;6.55;;;;;;;24.63;72.97;98924.78;5088559;28;20423;-64
2021/08/19 06:31:59;;;;;;;9.10;5.72;;;;;;;25.44;69.51;98919.66;5087581;28;20418;-64
2021/08/19 06:34:25;;;;;;;7.47;5.80;;;;;;;26.41;64.77;98921.44;5088467;28;20590;-68
2021/08/19 06:36:51;;;;;;;12.13;7.05;;;;;;;27.15;60.78;98926.28;5070144;28;20123;-64
2021/08/19 06:39:18;;;;;;;8.55;5.80;;;;;;;27.72;58.34;98917.88;5087020;28;20028;-63
2021/08/19 06:41:44;;;;;;;8.25;5.68;;;;;;;27.91;55.92;98933.38;5087778;28;20032;-65
2021/08/19 14:43:15;;;;;;;8.32;5.18;;;;;;;23.27;66.65;98890.97;5102924;27;20411;-64
2021/08/19 14:45:42;;;;;;;7.60;3.20;;;;;;;23.33;68.05;98891.22;5102563;28;20047;-63
2021/08/19 14:48:08;;;;;;;9.45;4.63;;;;;;;23.42;68.27;98884.13;5103410;28;20118;-62
2021/08/19 14:50:35;;;;;;;8.38;4.85;;;;;;;23.46;68.02;98883.72;5104641;28;20047;-62
2021/08/19 14:53:01;;;;;;;8.07;4.68;;;;;;;23.56;68.03;98880.97;5106467;28;20587;-63
2021/08/19 14:55:28;;;;;;;7.70;4.38;;;;;;;23.61;67.89;98887.47;5105954;28;20031;-68
2021/08/19 14:57:54;;;;;;;7.82;4.07;;;;;;;23.66;67.97;98881.69;5098965;28;20040;-70
2021/08/19 15:00:20;;;;;;;10.65;4.53;;;;;;;23.71;67.81;98883.91;5103422;28;20052;-66
2021/08/19 15:02:46;;;;;;;10.35;5.28;;;;;;;23.72;67.65;98889.03;5102719;28;20031;-63
2021/08/19 15:05:13;;;;;;;10.02;3.30;;;;;;;23.60;66.39;98879.69;5099257;28;20036;-63
2021/08/19 15:07:39;;;;;;;10.32;3.80;;;;;;;23.60;65.83;98887.66;5104524;28;20046;-60
2021/08/19 15:10:06;;;;;;;12.25;4.65;;;;;;;23.50;66.15;98876.28;5104187;28;20060;-59
2021/08/19 15:12:32;;;;;;;20.15;6.40;;;;;;;23.49;66.15;98872.81;5102799;28;20032;-60
2021/08/19 15:14:58;;;;;;;5.32;3.85;;;;;;;23.55;66.21;98889.94;5104340;28;20044;-60
2021/08/19 15:17:26;;;;;;;6.85;3.83;;;;;;;23.54;66.14;98894.41;5093271;28;20136;-60
2021/08/19 15:19:52;;;;;;;4.97;3.13;;;;;;;23.51;65.78;98900.00;5086221;28;20050;-60
2021/08/19 15:22:18;;;;;;;11.77;4.70;;;;;;;23.48;65.63;98888.88;5087785;28;20044;-59
2021/08/19 15:24:46;;;;;;;10.20;4.25;;;;;;;23.46;66.25;98894.31;5095802;28;20074;-62
2021/08/19 15:27:20;;;;;;;5.85;3.83;;;;;;;23.44;66.27;98898.09;5091908;28;20110;-63
2021/08/19 15:29:50;;;;;;;8.15;4.15;;;;;;;23.42;66.57;98900.91;5089207;28;20148;-62
2021/08/19 15:32:17;;;;;;;10.18;5.40;;;;;;;23.35;66.63;98891.03;5091737;28;20384;-63
2021/08/19 15:34:44;;;;;;;11.20;3.97;;;;;;;23.29;67.08;98881.88;5087237;28;20049;-62
2021/08/19 15:37:22;;;;;;;5.35;3.72;;;;;;;23.37;66.56;98899.69;5097423;28;20538;-63
2021/08/19 15:39:49;;;;;;;8.05;3.60;;;;;;;23.28;66.38;98898.78;5108251;28;20494;-62
2021/08/19 15:42:16;;;;;;;9.57;4.20;;;;;;;23.32;66.89;98905.44;5095063;28;20056;-62
2021/08/19 15:44:44;;;;;;;9.82;4.00;;;;;;;23.29;67.19;98910.22;5087632;28;20040;-62
2021/08/19 15:47:11;;;;;;;6.20;3.92;;;;;;;23.16;66.88;98910.59;5091507;28;20048;-61
2021/08/19 15:49:38;;;;;;;12.25;3.88;;;;;;;23.13;66.12;98921.53;5075298;28;20146;-62
2021/08/19 15:52:05;;;;;;;12.73;3.72;;;;;;;23.03;65.96;98904.84;5097692;28;20040;-61
2021/08/19 15:54:35;;;;;;;5.05;3.33;;;;;;;23.09;65.74;98938.69;5075497;28;20046;-60
2021/08/19 15:57:03;;;;;;;10.35;3.50;;;;;;;22.96;65.67;98936.41;5080571;28;20134;-61
2021/08/19 15:59:29;;;;;;;8.10;4.28;;;;;;;22.86;66.19;98932.16;5083834;28;20389;-63
2021/08/19 16:01:55;;;;;;;5.57;4.00;;;;;;;22.85;66.16;98935.78;5082399;28;20523;-63
2021/08/19 16:04:21;;;;;;;6.65;3.80;;;;;;;22.82;66.33;98928.16;5081526;28;20036;-62
2021/08/19 16:06:47;;;;;;;8.73;4.60;;;;;;;22.81;66.85;98919.34;5074437;28;20044;-62
2021/08/19 16:09:13;;;;;;;11.38;4.75;;;;;;;22.77;67.48;98934.69;5084279;28;20042;-62
2021/08/19 16:11:42;;;;;;;7.18;3.78;;;;;;;22.72;67.69;98939.59;5078867;28;20040;-67
2021/08/19 16:14:08;;;;;;;12.88;4.38;;;;;;;22.65;67.40;98937.69;5075720;28;20040;-63
2021/08/19 16:16:34;;;;;;;5.40;3.90;;;;;;;22.64;67.97;98943.97;5082955;28;20063;-59
2021/08/19 16:19:01;;;;;;;5.53;4.10;;;;;;;22.62;68.30;98943.25;5084226;28;20071;-63
2021/08/19 16:21:28;;;;;;;6.50;4.10;;;;;;;22.59;68.64;98943.56;5083754;28;20044;-61
2021/08/19 16:23:54;;;;;;;11.15;5.88;;;;;;;22.59;69.10;98948.88;5081611;28;20054;-62
2021/08/19 16:26:20;;;;;;;8.60;4.07;;;;;;;22.54;69.22;98948.47;5083835;28;20114;-61
2021/08/19 16:28:46;;;;;;;5.57;3.70;;;;;;;22.47;69.33;98958.81;5078592;28;20496;-62
2021/08/19 16:31:12;;;;;;;7.07;3.38;;;;;;;22.37;68.99;98958.00;5084699;28;20115;-61
2021/08/19 16:33:37;;;;;;;10.85;3.55;;;;;;;22.26;68.67;98952.88;5078692;28;20040;-62
2021/08/19 16:36:11;;;;;;;7.30;3.75;;;;;;;22.18;68.67;98956.25;5085127;28;20044;-62
2021/08/19 16:38:46;;;;;;;7.72;4.28;;;;;;;22.14;69.20;98957.50;5083191;28;20040;-63
2021/08/19 16:41:12;;;;;;;8.43;4.95;;;;;;;22.12;69.86;98967.44;5077589;28;20072;-62
2021/08/19 16:43:38;;;;;;;7.60;3.90;;;;;;;22.08;70.45;98970.50;5079758;28;20478;-61
2021/08/19 16:46:05;;;;;;;7.05;3.70;;;;;;;22.01;71.39;98966.75;5083406;28;20044;-61
2021/08/19 16:48:34;;;;;;;6.88;3.40;;;;;;;21.94;72.05;98963.81;5076398;28;20036;-61
2021/08/19 16:51:01;;;;;;;7.13;4.00;;;;;;;21.87;72.17;98965.34;5078958;28;20044;-61
2021/08/19 16:53:27;;;;;;;11.15;4.15;;;;;;;21.80;72.79;98969.53;5061884;28;20059;-62
2021/08/19 16:55:53;;;;;;;7.63;4.05;;;;;;;21.72;72.77;98975.50;5084717;28;20768;-58
2021/08/19 16:58:19;;;;;;;9.10;3.45;;;;;;;21.64;73.24;98975.38;5081953;28;20135;-59
2021/08/19 17:00:45;;;;;;;10.85;4.40;;;;;;;21.47;72.87;98971.63;5089170;28;20131;-60
2021/08/19 17:03:10;;;;;;;6.13;4.05;;;;;;;21.48;72.78;98988.34;5083276;28;20047;-60
2021/08/19 17:05:36;;;;;;;13.30;5.63;;;;;;;21.43;73.48;98979.97;5073163;28;20040;-60
2021/08/19 17:08:03;;;;;;;9.05;3.90;;;;;;;21.40;72.85;98980.28;5081458;28;20046;-63
2021/08/19 17:10:29;;;;;;;7.13;3.97;;;;;;;21.33;72.62;98979.13;5082810;28;20055;-64
2021/08/19 17:12:55;;;;;;;7.72;3.85;;;;;;;21.31;72.68;98971.34;5080322;28;20036;-64
2021/08/19 17:15:21;;;;;;;8.95;3.83;;;;;;;21.29;72.65;98972.47;5082871;28;20108;-57
2021/08/19 17:17:46;;;;;;;5.68;4.30;;;;;;;21.27;73.02;98977.03;5075702;28;20047;-62
2021/08/19 17:20:13;;;;;;;6.15;3.85;;;;;;;21.21;73.58;98980.22;5076810;28;20041;-60
2021/08/19 17:22:39;;;;;;;9.82;4.25;;;;;;;21.18;74.34;98980.50;5078624;28;20037;-57
2021/08/19 17:25:05;;;;;;;11.07;4.43;;;;;;;21.13;75.10;98991.47;5071156;28;20575;-63
2021/08/19 17:27:31;;;;;;;11.90;4.60;;;;;;;21.05;75.83;98991.28;5077601;28;20036;-59
2021/08/19 17:29:57;;;;;;;10.40;4.38;;;;;;;21.02;76.15;99007.44;5072561;28;20523;-58
2021/08/19 17:32:23;;;;;;;7.82;4.35;;;;;;;20.97;76.58;99005.19;5074580;28;20090;-54
2021/08/19 17:34:50;;;;;;;10.38;4.40;;;;;;;20.93;77.16;99006.44;5071979;28;20063;-53
2021/08/19 17:37:15;;;;;;;8.15;4.50;;;;;;;20.89;77.32;99009.47;5077335;28;20118;-65
2021/08/19 17:39:41;;;;;;;13.13;5.00;;;;;;;20.79;77.22;99003.31;5077840;28;20135;-60
2021/08/19 17:42:08;;;;;;;8.15;4.97;;;;;;;20.73;76.98;98995.94;5081950;28;20055;-65
2021/08/19 17:44:34;;;;;;;8.65;4.63;;;;;;;20.77;77.39;99013.19;5075137;28;20040;-66
2021/08/19 17:47:00;;;;;;;12.48;5.15;;;;;;;20.76;77.39;99006.22;5076914;28;20050;-67
2021/08/19 17:49:26;;;;;;;11.23;5.07;;;;;;;20.74;77.47;99009.00;5078933;28;20036;-65
2021/08/19 17:51:52;;;;;;;11.45;4.65;;;;;;;20.73;78.06;99002.03;5081186;28;20055;-66
2021/08/19 17:54:18;;;;;;;15.10;5.07;;;;;;;20.73;78.24;98995.94;5079191;28;20059;-66
2021/08/19 17:56:44;;;;;;;10.65;4.95;;;;;;;20.75;77.95;98986.06;5079336;28;20036;-68
2021/08/19 17:59:10;;;;;;;7.70;4.15;;;;;;;20.69;77.75;98969.78;5086390;28;20046;-66
2021/08/19 18:01:37;;;;;;;8.52;4.45;;;;;;;20.79;78.02;98985.66;5077092;28;20423;-66
2021/08/19 18:04:03;;;;;;;10.80;4.55;;;;;;;20.81;77.98;98994.28;5079214;28;20093;-66
2021/08/19 18:06:29;;;;;;;13.60;4.95;;;;;;;20.83;77.19;98994.16;5080272;28;20114;-68
2021/08/19 18:08:55;;;;;;;9.70;4.93;;;;;;;20.84;76.57;99001.94;5083748;28;20094;-65
2021/08/19 18:11:21;;;;;;;9.25;4.97;;;;;;;20.85;76.49;98993.06;5078307;28;20535;-68
2021/08/19 18:13:48;;;;;;;12.63;4.75;;;;;;;20.86;76.88;98992.09;5079764;28;20047;-67
2021/08/19 18:16:15;;;;;;;10.23;4.80;;;;;;;20.91;76.75;99002.25;5078344;28;20039;-65
2021/08/19 18:18:47;;;;;;;7.72;4.30;;;;;;;20.90;76.46;99000.56;5075009;28;20041;-66
2021/08/19 18:21:13;;;;;;;6.32;4.45;;;;;;;20.91;76.34;99004.88;5079128;28;20503;-66
2021/08/19 18:23:43;;;;;;;7.82;5.13;;;;;;;20.89;74.47;99015.59;5078378;28;20515;-66
2021/08/19 18:26:13;;;;;;;8.10;4.80;;;;;;;20.82;73.85;99001.25;5087626;28;20039;-66
2021/08/19 18:28:40;;;;;;;10.65;5.00;;;;;;;20.93;74.58;99011.72;5076341;28;20531;-66
2021/08/19 18:31:08;;;;;;;9.65;4.60;;;;;;;20.96;74.92;99013.25;5079216;28;20062;-65
2021/08/19 18:33:34;;;;;;;10.68;4.75;;;;;;;20.94;73.78;99010.72;5038007;28;20036;-66
2021/08/19 18:36:01;;;;;;;7.25;4.60;;;;;;;20.93;73.84;99014.38;5099537;28;20082;-69
2021/08/19 18:38:27;;;;;;;8.65;4.18;;;;;;;20.95;73.18;99011.56;5049015;28;20045;-66
2021/08/19 18:40:53;;;;;;;10.32;3.85;;;;;;;20.99;72.04;99012.97;5071977;28;20036;-65
2021/08/19 18:43:19;;;;;;;7.65;4.20;;;;;;;21.02;71.78;99010.91;5073049;28;20051;-65
2021/08/19 18:45:45;;;;;;;11.10;4.63;;;;;;;21.02;71.12;99010.91;5068335;28;20052;-65
2021/08/19 18:48:12;;;;;;;9.77;4.25;;;;;;;21.04;71.23;99016.06;5074280;28;20036;-66
2021/08/19 18:50:38;;;;;;;10.18;4.50;;;;;;;20.94;70.37;99007.25;5076366;28;20387;-64
2021/08/19 18:53:04;;;;;;;7.93;4.65;;;;;;;20.89;70.14;99018.22;5081461;28;20036;-66
2021/08/19 18:55:30;;;;;;;8.52;4.82;;;;;;;20.91;69.07;99028.69;5080192;28;20044;-64
2021/08/19 18:57:56;;;;;;;7.22;4.78;;;;;;;20.84;69.06;99022.25;5078056;28;20067;-67
2021/08/19 19:00:22;;;;;;;7.20;4.18;;;;;;;20.68;69.14;99014.81;5079487;28;20071;-65
2021/08/19 19:02:49;;;;;;;9.70;4.10;;;;;;;20.76;68.84;99030.84;5079922;28;20797;-67
2021/08/19 19:05:15;;;;;;;8.93;4.15;;;;;;;20.75;68.91;99041.53;5078353;28;20566;-66
2021/08/19 19:07:42;;;;;;;8.13;4.47;;;;;;;20.71;68.32;99039.16;5069068;28;20127;-64
2021/08/19 19:10:09;;;;;;;6.30;4.47;;;;;;;20.68;68.50;99042.06;5082187;28;20063;-64
2021/08/19 19:12:38;;;;;;;8.05;4.80;;;;;;;20.66;68.90;99049.31;5067646;28;20040;-65
2021/08/19 19:15:10;;;;;;;9.32;4.60;;;;;;;20.67;69.05;99048.31;5081856;28;20490;-67
2021/08/19 19:17:40;;;;;;;10.80;4.90;;;;;;;20.67;68.61;99058.06;5080697;28;20523;-63